sensor_id;sensor_type;location;lat;lon;timestamp;P1;durP1;ratioP1;P2;durP2;ratioP2
74788;SDS011;63313;48.258;12.518;2022-09-14T00:00:41;8.09;;;4.719999999999999;;
74788;SDS011;63313;48.258;12.518;2022-09-14T00:06:09;11.59;;;5.119999999999999;;
74788;SDS011;63313;48.258;12.518;2022-09-14T00:11:37;5.409999999999999;;;4.93;;
74788;SDS011;63313;48.258;12.518;2022-09-14T00:17:04;7.590000000000001;;;4.92;;
74788;SDS011;63313;48.258;12.518;2022-09-14T00:22:31;6.7700000000000005;;;4.74;;
74788;SDS011;63313;48.258;12.518;2022-09-14T00:27:58;7.089999999999999;;;4.82;;
74788;SDS011;63313;48.258;12.518;2022-09-14T00:33:25;6.239999999999999;;;5.08;;
74788;SDS011;63313;48.258;12.518;2022-09-14T00:38:53;7.150000000000001;;;4.86;;
74788;SDS011;63313;48.258;12.518;2022-09-14T00:45:26;6.58;;;5.47;;
74788;SDS011;63313;48.258;12.518;2022-09-14T00:50:53;7.139999999999999;;;5.789999999999999;;
74788;SDS011;63313;48.258;12.518;2022-09-14T00:56:20;8.280000000000001;;;5.18;;
74788;SDS011;63313;48.258;12.518;2022-09-14T01:01:47;9.3;;;5.07;;
74788;SDS011;63313;48.258;12.518;2022-09-14T01:07:18;6.55;;;5.3;;
74788;SDS011;63313;48.258;12.518;2022-09-14T01:12:48;6.32;;;5.4799999999999995;;
74788;SDS011;63313;48.258;12.518;2022-09-14T01:18:17;6.82;;;5.17;;
74788;SDS011;63313;48.258;12.518;2022-09-14T01:23:48;6.23;;;5.43;;
74788;SDS011;63313;48.258;12.518;2022-09-14T01:29:16;7.480000000000001;;;5.3100000000000005;;
74788;SDS011;63313;48.258;12.518;2022-09-14T01:34:45;5.8999999999999995;;;4.85;;
74788;SDS011;63313;48.258;12.518;2022-09-14T01:40:15;8.260000000000002;;;5.529999999999999;;
74788;SDS011;63313;48.258;12.518;2022-09-14T01:45:45;5.16;;;4.6499999999999995;;
74788;SDS011;63313;48.258;12.518;2022-09-14T01:51:15;5.529999999999999;;;4.94;;
74788;SDS011;63313;48.258;12.518;2022-09-14T01:56:45;7.32;;;5.540000000000001;;
74788;SDS011;63313;48.258;12.518;2022-09-14T02:02:15;7.26;;;5.539999999999999;;
74788;SDS011;63313;48.258;12.518;2022-09-14T02:07:43;5.9;;;5.279999999999999;;
74788;SDS011;63313;48.258;12.518;2022-09-14T02:13:10;5.930000000000001;;;4.95;;
74788;SDS011;63313;48.258;12.518;2022-09-14T02:18:37;6.5;;;5.26;;
74788;SDS011;63313;48.258;12.518;2022-09-14T02:24:04;6.03;;;5.48;;
74788;SDS011;63313;48.258;12.518;2022-09-14T02:29:32;7.43;;;5.84;;
74788;SDS011;63313;48.258;12.518;2022-09-14T02:35:01;9.879999999999999;;;6.37;;
74788;SDS011;63313;48.258;12.518;2022-09-14T02:40:31;10.389999999999999;;;6.5;;
74788;SDS011;63313;48.258;12.518;2022-09-14T02:46:00;10.420000000000002;;;6.94;;
74788;SDS011;63313;48.258;12.518;2022-09-14T02:51:31;13.169999999999998;;;6.82;;
74788;SDS011;63313;48.258;12.518;2022-09-14T02:56:59;10.559999999999999;;;7.369999999999999;;
74788;SDS011;63313;48.258;12.518;2022-09-14T03:02:27;8.22;;;7.160000000000001;;
74788;SDS011;63313;48.258;12.518;2022-09-14T03:07:54;16.91;;;7.360000000000001;;
74788;SDS011;63313;48.258;12.518;2022-09-14T03:13:21;8.45;;;6.459999999999999;;
74788;SDS011;63313;48.258;12.518;2022-09-14T03:18:48;8.950000000000001;;;5.779999999999999;;
74788;SDS011;63313;48.258;12.518;2022-09-14T03:24:15;9.749999999999998;;;6.67;;
74788;SDS011;63313;48.258;12.518;2022-09-14T03:29:42;12.0;;;7.49;;
74788;SDS011;63313;48.258;12.518;2022-09-14T03:35:09;11.17;;;8.12;;
74788;SDS011;63313;48.258;12.518;2022-09-14T03:40:37;12.86;;;7.58;;
74788;SDS011;63313;48.258;12.518;2022-09-14T03:46:05;12.9;;;8.3;;
74788;SDS011;63313;48.258;12.518;2022-09-14T03:51:32;17.76;;;9.479999999999999;;
74788;SDS011;63313;48.258;12.518;2022-09-14T03:57:00;14.55;;;9.33;;
74788;SDS011;63313;48.258;12.518;2022-09-14T04:02:27;13.530000000000001;;;8.91;;
74788;SDS011;63313;48.258;12.518;2022-09-14T04:07:54;13.87;;;9.370000000000001;;
74788;SDS011;63313;48.258;12.518;2022-09-14T04:13:21;12.08;;;8.94;;
74788;SDS011;63313;48.258;12.518;2022-09-14T04:18:48;17.08;;;10.11;;
74788;SDS011;63313;48.258;12.518;2022-09-14T04:24:15;22.0;;;13.190000000000001;;
74788;SDS011;63313;48.258;12.518;2022-09-14T04:29:43;27.54;;;15.779999999999998;;
74788;SDS011;63313;48.258;12.518;2022-09-14T04:35:10;42.25000000000001;;;19.869999999999997;;
74788;SDS011;63313;48.258;12.518;2022-09-14T04:40:39;35.36;;;18.08;;
74788;SDS011;63313;48.258;12.518;2022-09-14T04:46:07;31.910000000000004;;;14.419999999999998;;
74788;SDS011;63313;48.258;12.518;2022-09-14T04:51:36;24.64;;;13.959999999999999;;
74788;SDS011;63313;48.258;12.518;2022-09-14T04:57:03;18.660000000000004;;;10.819999999999999;;
74788;SDS011;63313;48.258;12.518;2022-09-14T05:02:30;17.020000000000003;;;8.37;;
74788;SDS011;63313;48.258;12.518;2022-09-14T05:07:57;14.38;;;8.530000000000001;;
74788;SDS011;63313;48.258;12.518;2022-09-14T05:13:24;13.629999999999999;;;8.66;;
74788;SDS011;63313;48.258;12.518;2022-09-14T05:18:52;13.919999999999998;;;9.19;;
74788;SDS011;63313;48.258;12.518;2022-09-14T05:24:20;13.38;;;9.58;;
74788;SDS011;63313;48.258;12.518;2022-09-14T05:29:47;10.45;;;8.07;;
74788;SDS011;63313;48.258;12.518;2022-09-14T05:35:14;17.0;;;9.93;;
74788;SDS011;63313;48.258;12.518;2022-09-14T05:40:41;13.95;;;9.4;;
74788;SDS011;63313;48.258;12.518;2022-09-14T05:46:09;13.319999999999999;;;8.900000000000002;;
74788;SDS011;63313;48.258;12.518;2022-09-14T05:51:36;14.98;;;8.91;;
74788;SDS011;63313;48.258;12.518;2022-09-14T05:57:03;11.669999999999998;;;9.34;;
74788;SDS011;63313;48.258;12.518;2022-09-14T06:02:30;18.77;;;10.35;;
74788;SDS011;63313;48.258;12.518;2022-09-14T06:07:57;16.08;;;10.41;;
74788;SDS011;63313;48.258;12.518;2022-09-14T06:13:24;17.69;;;10.410000000000002;;
74788;SDS011;63313;48.258;12.518;2022-09-14T06:18:52;15.45;;;10.29;;
74788;SDS011;63313;48.258;12.518;2022-09-14T06:24:20;17.4;;;10.709999999999999;;
74788;SDS011;63313;48.258;12.518;2022-09-14T06:29:47;20.68;;;12.110000000000001;;
74788;SDS011;63313;48.258;12.518;2022-09-14T06:35:14;16.660000000000004;;;11.28;;
74788;SDS011;63313;48.258;12.518;2022-09-14T06:40:49;18.509999999999998;;;11.090000000000002;;
74788;SDS011;63313;48.258;12.518;2022-09-14T06:46:17;14.39;;;10.73;;
74788;SDS011;63313;48.258;12.518;2022-09-14T06:51:45;19.169999999999998;;;10.41;;
74788;SDS011;63313;48.258;12.518;2022-09-14T06:57:12;12.379999999999999;;;8.85;;
74788;SDS011;63313;48.258;12.518;2022-09-14T07:02:39;13.979999999999999;;;7.95;;
74788;SDS011;63313;48.258;12.518;2022-09-14T07:08:06;15.09;;;7.88;;
74788;SDS011;63313;48.258;12.518;2022-09-14T07:13:34;9.419999999999998;;;6.32;;
74788;SDS011;63313;48.258;12.518;2022-09-14T07:19:02;7.45;;;6.33;;
74788;SDS011;63313;48.258;12.518;2022-09-14T07:24:30;10.780000000000001;;;6.630000000000001;;
74788;SDS011;63313;48.258;12.518;2022-09-14T07:29:57;8.42;;;5.209999999999999;;
74788;SDS011;63313;48.258;12.518;2022-09-14T07:35:24;13.170000000000002;;;5.84;;
74788;SDS011;63313;48.258;12.518;2022-09-14T07:40:51;9.89;;;6.25;;
74788;SDS011;63313;48.258;12.518;2022-09-14T07:46:18;10.309999999999999;;;6.289999999999999;;
74788;SDS011;63313;48.258;12.518;2022-09-14T07:51:46;12.330000000000002;;;5.97;;
74788;SDS011;63313;48.258;12.518;2022-09-14T07:57:13;9.56;;;4.5200000000000005;;
74788;SDS011;63313;48.258;12.518;2022-09-14T08:02:40;12.440000000000001;;;4.16;;
74788;SDS011;63313;48.258;12.518;2022-09-14T08:08:07;6.11;;;3.6;;
74788;SDS011;63313;48.258;12.518;2022-09-14T08:13:34;6.2;;;3.6399999999999997;;
74788;SDS011;63313;48.258;12.518;2022-09-14T08:19:02;8.190000000000001;;;4.11;;
74788;SDS011;63313;48.258;12.518;2022-09-14T08:24:29;4.42;;;3.05;;
74788;SDS011;63313;48.258;12.518;2022-09-14T08:29:56;3.71;;;2.69;;
74788;SDS011;63313;48.258;12.518;2022-09-14T08:35:23;3.8300000000000005;;;2.5900000000000003;;
74788;SDS011;63313;48.258;12.518;2022-09-14T08:40:50;2.93;;;2.7299999999999995;;
74788;SDS011;63313;48.258;12.518;2022-09-14T08:46:21;3.3200000000000003;;;2.5800000000000005;;
74788;SDS011;63313;48.258;12.518;2022-09-14T08:51:50;6.640000000000001;;;2.3199999999999994;;
74788;SDS011;63313;48.258;12.518;2022-09-14T08:57:18;4.52;;;2.29;;
74788;SDS011;63313;48.258;12.518;2022-09-14T09:02:55;2.3200000000000003;;;1.8399999999999999;;
74788;SDS011;63313;48.258;12.518;2022-09-14T09:08:28;5.62;;;1.7;;
74788;SDS011;63313;48.258;12.518;2022-09-14T09:13:57;4.01;;;1.78;;
74788;SDS011;63313;48.258;12.518;2022-09-14T09:19:25;5.319999999999999;;;1.8;;
74788;SDS011;63313;48.258;12.518;2022-09-14T09:24:54;3.9199999999999995;;;1.8699999999999997;;
74788;SDS011;63313;48.258;12.518;2022-09-14T09:30:21;3.6;;;1.75;;
74788;SDS011;63313;48.258;12.518;2022-09-14T09:35:48;4.09;;;1.9100000000000001;;
74788;SDS011;63313;48.258;12.518;2022-09-14T09:41:17;5.05;;;1.97;;
74788;SDS011;63313;48.258;12.518;2022-09-14T09:46:46;8.46;;;2.44;;
74788;SDS011;63313;48.258;12.518;2022-09-14T09:52:14;4.74;;;1.7600000000000002;;
74788;SDS011;63313;48.258;12.518;2022-09-14T09:57:42;2.74;;;1.6400000000000001;;
74788;SDS011;63313;48.258;12.518;2022-09-14T10:03:23;6.9399999999999995;;;1.85;;
74788;SDS011;63313;48.258;12.518;2022-09-14T10:08:51;4.99;;;1.5599999999999998;;
74788;SDS011;63313;48.258;12.518;2022-09-14T10:14:22;11.330000000000002;;;1.7299999999999998;;
74788;SDS011;63313;48.258;12.518;2022-09-14T10:19:50;5.5200000000000005;;;1.64;;
74788;SDS011;63313;48.258;12.518;2022-09-14T10:25:22;2.6100000000000003;;;1.38;;
74788;SDS011;63313;48.258;12.518;2022-09-14T10:30:50;10.42;;;1.53;;
74788;SDS011;63313;48.258;12.518;2022-09-14T10:36:20;5.34;;;1.67;;
74788;SDS011;63313;48.258;12.518;2022-09-14T10:41:51;4.06;;;1.6300000000000001;;
74788;SDS011;63313;48.258;12.518;2022-09-14T10:47:31;2.54;;;1.72;;
74788;SDS011;63313;48.258;12.518;2022-09-14T10:53:04;7.58;;;1.7400000000000002;;
74788;SDS011;63313;48.258;12.518;2022-09-14T10:58:37;4.17;;;1.64;;
74788;SDS011;63313;48.258;12.518;2022-09-14T11:04:12;3.4899999999999998;;;1.3699999999999999;;
74788;SDS011;63313;48.258;12.518;2022-09-14T11:09:41;5.04;;;1.52;;
74788;SDS011;63313;48.258;12.518;2022-09-14T11:15:13;4.47;;;1.44;;
74788;SDS011;63313;48.258;12.518;2022-09-14T11:20:45;5.050000000000001;;;1.44;;
74788;SDS011;63313;48.258;12.518;2022-09-14T11:26:16;6.15;;;1.6800000000000002;;
74788;SDS011;63313;48.258;12.518;2022-09-14T11:31:49;7.3199999999999985;;;1.5799999999999998;;
74788;SDS011;63313;48.258;12.518;2022-09-14T11:37:18;6.250000000000001;;;1.48;;
74788;SDS011;63313;48.258;12.518;2022-09-14T11:42:48;3.13;;;1.47;;
74788;SDS011;63313;48.258;12.518;2022-09-14T11:48:18;4.56;;;1.5399999999999998;;
74788;SDS011;63313;48.258;12.518;2022-09-14T11:53:46;2.69;;;1.5399999999999998;;
74788;SDS011;63313;48.258;12.518;2022-09-14T11:59:30;3.5699999999999994;;;1.56;;
74788;SDS011;63313;48.258;12.518;2022-09-14T12:05:32;3.56;;;1.1800000000000002;;
74788;SDS011;63313;48.258;12.518;2022-09-14T12:11:01;5.92;;;1.8199999999999996;;
74788;SDS011;63313;48.258;12.518;2022-09-14T12:16:29;7.33;;;1.46;;
74788;SDS011;63313;48.258;12.518;2022-09-14T12:21:56;4.08;;;1.6199999999999999;;
74788;SDS011;63313;48.258;12.518;2022-09-14T12:27:23;6.8;;;2.07;;
74788;SDS011;63313;48.258;12.518;2022-09-14T12:32:50;6.3100000000000005;;;1.4200000000000002;;
74788;SDS011;63313;48.258;12.518;2022-09-14T12:39:22;6.08;;;1.75;;
74788;SDS011;63313;48.258;12.518;2022-09-14T12:44:50;3.03;;;1.5299999999999998;;
74788;SDS011;63313;48.258;12.518;2022-09-14T12:50:18;2.23;;;1.27;;
74788;SDS011;63313;48.258;12.518;2022-09-14T12:55:48;4.319999999999999;;;1.5799999999999998;;
74788;SDS011;63313;48.258;12.518;2022-09-14T13:01:21;6.890000000000001;;;1.61;;
74788;SDS011;63313;48.258;12.518;2022-09-14T13:06:51;4.33;;;1.72;;
74788;SDS011;63313;48.258;12.518;2022-09-14T13:12:20;4.9;;;1.7599999999999998;;
74788;SDS011;63313;48.258;12.518;2022-09-14T13:17:57;5.2;;;1.6600000000000001;;
74788;SDS011;63313;48.258;12.518;2022-09-14T13:23:27;4.58;;;1.56;;
74788;SDS011;63313;48.258;12.518;2022-09-14T13:28:55;3.12;;;1.6599999999999997;;
74788;SDS011;63313;48.258;12.518;2022-09-14T13:34:23;6.55;;;1.73;;
74788;SDS011;63313;48.258;12.518;2022-09-14T13:39:52;5.05;;;1.59;;
74788;SDS011;63313;48.258;12.518;2022-09-14T13:45:20;2.2299999999999995;;;1.49;;
74788;SDS011;63313;48.258;12.518;2022-09-14T13:50:48;5.34;;;1.56;;
74788;SDS011;63313;48.258;12.518;2022-09-14T13:56:17;3.0300000000000002;;;1.47;;
74788;SDS011;63313;48.258;12.518;2022-09-14T14:01:49;8.99;;;1.8399999999999999;;
74788;SDS011;63313;48.258;12.518;2022-09-14T14:07:19;4.1899999999999995;;;2.2;;
74788;SDS011;63313;48.258;12.518;2022-09-14T14:12:47;6.5;;;1.9;;
74788;SDS011;63313;48.258;12.518;2022-09-14T14:18:37;3.35;;;1.4999999999999998;;
74788;SDS011;63313;48.258;12.518;2022-09-14T14:24:37;5.24;;;1.85;;
74788;SDS011;63313;48.258;12.518;2022-09-14T14:30:11;3.5099999999999993;;;1.6300000000000001;;
74788;SDS011;63313;48.258;12.518;2022-09-14T14:35:38;2.96;;;1.55;;
74788;SDS011;63313;48.258;12.518;2022-09-14T14:41:06;5.05;;;2.0199999999999996;;
74788;SDS011;63313;48.258;12.518;2022-09-14T14:46:33;5.92;;;1.73;;
74788;SDS011;63313;48.258;12.518;2022-09-14T14:52:00;4.750000000000001;;;1.73;;
74788;SDS011;63313;48.258;12.518;2022-09-14T14:57:27;3.3899999999999997;;;1.8399999999999999;;
74788;SDS011;63313;48.258;12.518;2022-09-14T15:02:54;3.7600000000000007;;;1.46;;
74788;SDS011;63313;48.258;12.518;2022-09-14T15:08:21;3.6599999999999993;;;1.8099999999999998;;
74788;SDS011;63313;48.258;12.518;2022-09-14T15:13:49;5.5;;;1.86;;
74788;SDS011;63313;48.258;12.518;2022-09-14T15:19:16;7.540000000000001;;;1.8699999999999999;;
74788;SDS011;63313;48.258;12.518;2022-09-14T15:24:43;7.01;;;1.9700000000000002;;
74788;SDS011;63313;48.258;12.518;2022-09-14T15:30:10;13.1;;;2.27;;
74788;SDS011;63313;48.258;12.518;2022-09-14T15:35:38;4.0;;;1.6300000000000001;;
74788;SDS011;63313;48.258;12.518;2022-09-14T15:41:05;7.2700000000000005;;;1.83;;
74788;SDS011;63313;48.258;12.518;2022-09-14T15:46:36;3.1199999999999997;;;1.35;;
74788;SDS011;63313;48.258;12.518;2022-09-14T15:52:03;5.64;;;1.4599999999999997;;
74788;SDS011;63313;48.258;12.518;2022-09-14T15:57:30;3.63;;;1.47;;
74788;SDS011;63313;48.258;12.518;2022-09-14T16:02:57;5.029999999999999;;;1.5399999999999998;;
74788;SDS011;63313;48.258;12.518;2022-09-14T16:08:25;6.890000000000001;;;1.53;;
74788;SDS011;63313;48.258;12.518;2022-09-14T16:13:52;17.21;;;2.2800000000000002;;
74788;SDS011;63313;48.258;12.518;2022-09-14T16:19:19;8.73;;;1.7200000000000002;;
74788;SDS011;63313;48.258;12.518;2022-09-14T16:24:46;5.51;;;1.2200000000000002;;
74788;SDS011;63313;48.258;12.518;2022-09-14T16:30:13;5.5200000000000005;;;1.33;;
74788;SDS011;63313;48.258;12.518;2022-09-14T16:35:40;2.3600000000000003;;;1.15;;
74788;SDS011;63313;48.258;12.518;2022-09-14T16:41:08;7.38;;;1.46;;
74788;SDS011;63313;48.258;12.518;2022-09-14T16:46:35;18.5;;;1.65;;
74788;SDS011;63313;48.258;12.518;2022-09-14T16:52:02;8.22;;;1.6900000000000002;;
74788;SDS011;63313;48.258;12.518;2022-09-14T16:57:29;8.290000000000001;;;1.9099999999999997;;
74788;SDS011;63313;48.258;12.518;2022-09-14T17:02:56;5.119999999999999;;;1.5699999999999998;;
74788;SDS011;63313;48.258;12.518;2022-09-14T17:08:23;6.67;;;1.8199999999999998;;
74788;SDS011;63313;48.258;12.518;2022-09-14T17:13:51;2.3;;;1.19;;
74788;SDS011;63313;48.258;12.518;2022-09-14T17:19:18;4.18;;;1.7;;
74788;SDS011;63313;48.258;12.518;2022-09-14T17:24:45;5.66;;;1.5699999999999998;;
74788;SDS011;63313;48.258;12.518;2022-09-14T17:30:12;4.42;;;1.5299999999999998;;
74788;SDS011;63313;48.258;12.518;2022-09-14T17:35:44;4.96;;;1.56;;
74788;SDS011;63313;48.258;12.518;2022-09-14T17:41:12;4.21;;;1.46;;
74788;SDS011;63313;48.258;12.518;2022-09-14T17:46:39;6.510000000000001;;;1.64;;
74788;SDS011;63313;48.258;12.518;2022-09-14T17:52:07;8.75;;;1.77;;
74788;SDS011;63313;48.258;12.518;2022-09-14T17:57:34;4.9799999999999995;;;1.65;;
74788;SDS011;63313;48.258;12.518;2022-09-14T18:03:01;3.5699999999999994;;;1.8200000000000003;;
74788;SDS011;63313;48.258;12.518;2022-09-14T18:08:28;6.88;;;1.9299999999999997;;
74788;SDS011;63313;48.258;12.518;2022-09-14T18:13:55;5.18;;;1.6199999999999999;;
74788;SDS011;63313;48.258;12.518;2022-09-14T18:19:22;4.59;;;1.7999999999999996;;
74788;SDS011;63313;48.258;12.518;2022-09-14T18:24:50;3.6700000000000004;;;1.7600000000000002;;
74788;SDS011;63313;48.258;12.518;2022-09-14T18:30:17;3.96;;;1.9899999999999998;;
74788;SDS011;63313;48.258;12.518;2022-09-14T18:35:44;5.029999999999999;;;1.9899999999999998;;
74788;SDS011;63313;48.258;12.518;2022-09-14T18:41:11;3.0700000000000003;;;1.86;;
74788;SDS011;63313;48.258;12.518;2022-09-14T18:46:38;4.890000000000001;;;2.18;;
74788;SDS011;63313;48.258;12.518;2022-09-14T18:52:05;4.32;;;2.1399999999999997;;
74788;SDS011;63313;48.258;12.518;2022-09-14T18:57:32;5.819999999999999;;;2.1100000000000003;;
74788;SDS011;63313;48.258;12.518;2022-09-14T19:02:59;5.08;;;2.19;;
74788;SDS011;63313;48.258;12.518;2022-09-14T19:08:26;6.32;;;2.59;;
74788;SDS011;63313;48.258;12.518;2022-09-14T19:13:54;2.98;;;2.21;;
74788;SDS011;63313;48.258;12.518;2022-09-14T19:19:22;8.0;;;2.5;;
74788;SDS011;63313;48.258;12.518;2022-09-14T19:24:49;7.110000000000001;;;2.41;;
74788;SDS011;63313;48.258;12.518;2022-09-14T19:30:16;6.75;;;2.6700000000000004;;
74788;SDS011;63313;48.258;12.518;2022-09-14T19:35:43;7.43;;;2.75;;
74788;SDS011;63313;48.258;12.518;2022-09-14T19:41:10;10.27;;;3.3699999999999997;;
74788;SDS011;63313;48.258;12.518;2022-09-14T19:46:37;7.889999999999999;;;2.52;;
74788;SDS011;63313;48.258;12.518;2022-09-14T19:52:04;8.559999999999999;;;3.0200000000000005;;
74788;SDS011;63313;48.258;12.518;2022-09-14T19:57:31;7.83;;;2.91;;
74788;SDS011;63313;48.258;12.518;2022-09-14T20:02:59;5.6499999999999995;;;3.08;;
74788;SDS011;63313;48.258;12.518;2022-09-14T20:08:26;5.430000000000001;;;2.9699999999999998;;
74788;SDS011;63313;48.258;12.518;2022-09-14T20:13:53;5.62;;;2.75;;
74788;SDS011;63313;48.258;12.518;2022-09-14T20:19:21;8.07;;;3.4200000000000004;;
74788;SDS011;63313;48.258;12.518;2022-09-14T20:24:48;5.83;;;2.9199999999999995;;
74788;SDS011;63313;48.258;12.518;2022-09-14T20:30:16;3.63;;;2.6900000000000004;;
74788;SDS011;63313;48.258;12.518;2022-09-14T20:35:43;11.540000000000001;;;3.78;;
74788;SDS011;63313;48.258;12.518;2022-09-14T20:41:11;6.9799999999999995;;;3.4299999999999997;;
74788;SDS011;63313;48.258;12.518;2022-09-14T20:46:38;6.380000000000001;;;3.75;;
74788;SDS011;63313;48.258;12.518;2022-09-14T20:52:06;8.02;;;3.4;;
74788;SDS011;63313;48.258;12.518;2022-09-14T20:57:33;5.88;;;3.22;;
74788;SDS011;63313;48.258;12.518;2022-09-14T21:03:00;6.5200000000000005;;;3.3299999999999996;;
74788;SDS011;63313;48.258;12.518;2022-09-14T21:08:27;6.9;;;3.2599999999999993;;
74788;SDS011;63313;48.258;12.518;2022-09-14T21:13:55;6.43;;;3.38;;
74788;SDS011;63313;48.258;12.518;2022-09-14T21:19:23;9.39;;;3.8199999999999994;;
74788;SDS011;63313;48.258;12.518;2022-09-14T21:24:50;5.48;;;3.45;;
74788;SDS011;63313;48.258;12.518;2022-09-14T21:30:17;6.909999999999999;;;3.41;;
74788;SDS011;63313;48.258;12.518;2022-09-14T21:35:44;8.2;;;3.8200000000000003;;
74788;SDS011;63313;48.258;12.518;2022-09-14T21:41:11;4.479999999999999;;;3.2399999999999998;;
74788;SDS011;63313;48.258;12.518;2022-09-14T21:46:39;9.48;;;4.6;;
74788;SDS011;63313;48.258;12.518;2022-09-14T21:52:06;10.290000000000001;;;3.6199999999999997;;
74788;SDS011;63313;48.258;12.518;2022-09-14T21:57:33;4.0600000000000005;;;2.91;;
74788;SDS011;63313;48.258;12.518;2022-09-14T22:03:00;8.330000000000002;;;3.56;;
74788;SDS011;63313;48.258;12.518;2022-09-14T22:08:28;7.87;;;3.9300000000000006;;
74788;SDS011;63313;48.258;12.518;2022-09-14T22:13:56;5.43;;;2.84;;
74788;SDS011;63313;48.258;12.518;2022-09-14T22:19:24;4.39;;;2.87;;
74788;SDS011;63313;48.258;12.518;2022-09-14T22:24:51;8.150000000000002;;;3.9800000000000004;;
74788;SDS011;63313;48.258;12.518;2022-09-14T22:30:18;4.03;;;3.4800000000000004;;
74788;SDS011;63313;48.258;12.518;2022-09-14T22:35:54;9.45;;;2.91;;
74788;SDS011;63313;48.258;12.518;2022-09-14T22:41:21;12.76;;;3.9199999999999995;;
74788;SDS011;63313;48.258;12.518;2022-09-14T22:46:49;8.68;;;3.7;;
74788;SDS011;63313;48.258;12.518;2022-09-14T22:52:16;6.17;;;3.8599999999999994;;
74788;SDS011;63313;48.258;12.518;2022-09-14T22:57:43;9.309999999999999;;;3.16;;
74788;SDS011;63313;48.258;12.518;2022-09-14T23:03:10;4.5;;;2.5999999999999996;;
74788;SDS011;63313;48.258;12.518;2022-09-14T23:08:37;6.710000000000001;;;2.3899999999999997;;
74788;SDS011;63313;48.258;12.518;2022-09-14T23:14:04;5.1000000000000005;;;2.6199999999999997;;
74788;SDS011;63313;48.258;12.518;2022-09-14T23:19:31;6.65;;;2.06;;
74788;SDS011;63313;48.258;12.518;2022-09-14T23:24:58;7.4;;;2.1399999999999997;;
74788;SDS011;63313;48.258;12.518;2022-09-14T23:30:26;5.049999999999999;;;2.1800000000000006;;
74788;SDS011;63313;48.258;12.518;2022-09-14T23:35:53;5.32;;;2.15;;
74788;SDS011;63313;48.258;12.518;2022-09-14T23:41:21;4.360000000000001;;;1.6400000000000001;;
74788;SDS011;63313;48.258;12.518;2022-09-14T23:46:48;3.6699999999999995;;;1.72;;
74788;SDS011;63313;48.258;12.518;2022-09-14T23:52:15;3.1699999999999995;;;1.5699999999999998;;
74788;SDS011;63313;48.258;12.518;2022-09-14T23:57:42;4.930000000000001;;;2.1;;
